createdAt,value
2022-09-02T00:01:46.504Z,100.00
2022-09-02T00:04:22.631Z,100.00
2022-09-02T00:06:53.359Z,100.00
2022-09-02T00:09:25.394Z,100.00
2022-09-02T00:11:56.512Z,100.00
2022-09-02T00:14:34.040Z,100.00
2022-09-02T00:17:02.881Z,100.00
2022-09-02T00:19:32.046Z,100.00
2022-09-02T00:22:02.406Z,100.00
2022-09-02T00:24:31.285Z,100.00
2022-09-02T00:26:59.654Z,100.00
2022-09-02T00:29:29.108Z,100.00
2022-09-02T00:31:57.420Z,100.00
2022-09-02T00:34:26.255Z,100.00
2022-09-02T00:36:54.618Z,100.00
2022-09-02T00:39:23.187Z,100.00
2022-09-02T00:41:51.632Z,100.00
2022-09-02T00:44:22.376Z,100.00
2022-09-02T00:46:50.820Z,100.00
2022-09-02T00:49:35.702Z,100.00
2022-09-02T00:52:14.649Z,100.00
2022-09-02T00:55:04.687Z,100.00
2022-09-02T00:57:40.286Z,100.00
2022-09-02T01:00:18.120Z,100.00
2022-09-02T01:02:55.266Z,100.00
2022-09-02T01:05:27.106Z,100.00
2022-09-02T01:07:55.311Z,100.00
2022-09-02T01:10:28.672Z,100.00
2022-09-02T01:12:59.105Z,100.00
2022-09-02T01:15:28.224Z,100.00
2022-09-02T01:17:56.361Z,100.00
2022-09-02T01:20:26.319Z,100.00
2022-09-02T01:22:55.579Z,100.00
2022-09-02T01:25:28.946Z,100.00
2022-09-02T01:28:08.563Z,100.00
2022-09-02T01:30:42.489Z,100.00
2022-09-02T01:33:12.142Z,100.00
2022-09-02T01:35:40.675Z,100.00
2022-09-02T01:38:09.929Z,100.00
2022-09-02T01:40:38.929Z,100.00
2022-09-02T01:43:30.281Z,100.00
2022-09-02T01:45:59.796Z,100.00
2022-09-02T01:48:31.247Z,100.00
2022-09-02T01:51:02.970Z,100.00
2022-09-02T01:53:32.102Z,100.00
2022-09-02T01:56:00.951Z,100.00
2022-09-02T01:58:33.002Z,100.00
2022-09-02T02:01:01.318Z,100.00
2022-09-02T02:03:30.819Z,100.00
2022-09-02T02:06:01.177Z,100.00
2022-09-02T02:08:30.552Z,100.00
2022-09-02T02:11:01.271Z,100.00
2022-09-02T02:13:31.335Z,100.00
2022-09-02T02:15:59.503Z,100.00
2022-09-02T02:18:29.916Z,100.00
2022-09-02T02:20:58.212Z,100.00
2022-09-02T02:23:26.332Z,100.00
2022-09-02T02:25:54.691Z,100.00
2022-09-02T02:28:23.237Z,100.00
2022-09-02T02:30:51.479Z,100.00
2022-09-02T02:33:20.452Z,100.00
2022-09-02T02:35:48.735Z,100.00
2022-09-02T02:38:16.775Z,100.00
2022-09-02T02:40:45.370Z,100.00
2022-09-02T02:43:13.700Z,100.00
2022-09-02T02:45:41.770Z,100.00
2022-09-02T02:48:10.139Z,100.00
2022-09-02T02:50:38.530Z,100.00
2022-09-02T02:53:07.661Z,100.00
2022-09-02T02:55:36.061Z,100.00
2022-09-02T02:58:04.671Z,100.00
2022-09-02T03:00:34.855Z,100.00
2022-09-02T03:03:10.422Z,100.00
2022-09-02T03:05:40.960Z,100.00
2022-09-02T03:08:11.245Z,100.00
2022-09-02T03:10:42.216Z,100.00
2022-09-02T03:13:12.335Z,100.00
2022-09-02T03:15:40.656Z,100.00
2022-09-02T03:18:10.294Z,100.00
2022-09-02T03:20:41.531Z,100.00
2022-09-02T03:23:12.949Z,100.00
2022-09-02T03:25:46.182Z,100.00
2022-09-02T03:28:25.762Z,100.00
2022-09-02T03:30:54.432Z,100.00
2022-09-02T03:33:25.029Z,100.00
2022-09-02T03:35:53.429Z,100.00
2022-09-02T03:38:21.921Z,100.00
2022-09-02T03:40:50.085Z,100.00
2022-09-02T03:43:19.554Z,100.00
2022-09-02T03:45:47.871Z,100.00
2022-09-02T03:48:16.288Z,100.00
2022-09-02T03:50:47.530Z,100.00
2022-09-02T03:53:20.879Z,100.00
2022-09-02T03:55:55.232Z,100.00
2022-09-02T03:58:26.500Z,100.00
2022-09-02T04:00:56.825Z,100.00
2022-09-02T04:03:26.612Z,100.00
2022-09-02T04:05:55.106Z,100.00
2022-09-02T04:08:26.771Z,100.00
2022-09-02T04:10:58.051Z,100.00
2022-09-02T04:13:27.380Z,100.00
2022-09-02T04:15:58.594Z,100.00
2022-09-02T04:18:31.233Z,100.00
2022-09-02T04:21:01.518Z,100.00
2022-09-02T04:23:30.074Z,100.00
2022-09-02T04:25:59.037Z,100.00
2022-09-02T04:28:27.105Z,100.00
2022-09-02T04:30:55.571Z,100.00
2022-09-02T04:33:24.246Z,100.00
2022-09-02T04:35:52.948Z,100.00
2022-09-02T04:38:21.893Z,100.00
2022-09-02T04:40:50.416Z,100.00
2022-09-02T04:43:20.373Z,100.00
2022-09-02T04:45:49.788Z,100.00
2022-09-02T04:48:20.029Z,100.00
2022-09-02T04:50:50.141Z,100.00
2022-09-02T04:53:19.448Z,100.00
2022-09-02T04:55:48.402Z,100.00
2022-09-02T04:58:17.418Z,100.00
2022-09-02T05:00:48.844Z,100.00
2022-09-02T05:03:20.319Z,100.00
2022-09-02T05:05:57.853Z,100.00
2022-09-02T05:08:26.162Z,100.00
2022-09-02T05:10:54.369Z,100.00
2022-09-02T05:13:23.949Z,100.00
2022-09-02T05:15:54.958Z,100.00
2022-09-02T05:18:23.757Z,100.00
2022-09-02T05:20:55.601Z,100.00
2022-09-02T05:23:23.825Z,100.00
2022-09-02T05:25:53.432Z,100.00
2022-09-02T05:28:21.920Z,100.00
2022-09-02T05:30:50.267Z,100.00
2022-09-02T05:33:18.574Z,100.00
2022-09-02T05:35:53.382Z,100.00
2022-09-02T05:38:22.067Z,100.00
2022-09-02T05:40:50.156Z,100.00
2022-09-02T05:43:19.333Z,100.00
2022-09-02T05:45:49.085Z,100.00
2022-09-02T05:48:37.903Z,100.00
2022-09-02T05:51:07.456Z,100.00
2022-09-02T05:53:36.290Z,100.00
2022-09-02T05:56:06.326Z,100.00
2022-09-02T05:58:35.713Z,100.00
2022-09-02T06:01:12.486Z,100.00
2022-09-02T06:03:41.516Z,100.00
2022-09-02T06:06:11.729Z,100.00
2022-09-02T06:08:42.264Z,100.00
2022-09-02T06:11:12.961Z,100.00
2022-09-02T06:13:43.723Z,100.00
2022-09-02T06:16:20.067Z,100.00
2022-09-02T06:18:50.893Z,100.00
2022-09-02T06:21:21.155Z,100.00
2022-09-02T06:23:53.158Z,100.00
2022-09-02T06:26:22.803Z,100.00
2022-09-02T06:28:53.911Z,100.00
2022-09-02T06:31:23.698Z,99.62
2022-09-02T06:33:55.605Z,100.00
2022-09-02T06:36:28.560Z,90.88
2022-09-02T06:39:00.767Z,92.69
2022-09-02T06:41:33.975Z,84.33
2022-09-02T06:44:07.888Z,81.84
2022-09-02T06:46:47.906Z,83.03
2022-09-02T06:49:17.012Z,78.65
2022-09-02T06:51:51.409Z,76.05
2022-09-02T06:54:22.933Z,76.91
2022-09-02T06:56:55.625Z,76.57
2022-09-02T06:59:27.146Z,74.88
2022-09-02T07:02:00.584Z,72.36
2022-09-02T07:04:48.433Z,72.84
2022-09-02T07:07:21.282Z,71.80
2022-09-02T07:10:09.483Z,71.09
2022-09-02T07:12:44.335Z,70.46
2022-09-02T07:15:16.782Z,68.83
2022-09-02T07:17:46.144Z,68.80
2022-09-02T07:20:20.720Z,67.55
2022-09-02T07:22:54.982Z,65.34
2022-09-02T07:25:24.968Z,64.52
2022-09-02T07:27:54.750Z,63.48
2022-09-02T07:30:24.142Z,63.26
2022-09-02T07:33:05.737Z,63.54
2022-09-02T07:35:37.867Z,62.49
2022-09-02T07:38:10.265Z,62.07
2022-09-02T07:40:41.787Z,61.32
2022-09-02T07:43:12.162Z,60.89
2022-09-02T07:45:43.946Z,58.82
2022-09-02T07:48:12.950Z,57.97
2022-09-02T07:50:42.334Z,57.11
2022-09-02T07:53:14.267Z,57.50
2022-09-02T07:55:44.236Z,58.31
2022-09-02T07:58:16.159Z,57.83
2022-09-02T08:00:44.953Z,58.79
2022-09-02T08:03:15.274Z,57.50
2022-09-02T08:05:49.662Z,57.63
2022-09-02T08:08:21.790Z,57.95
2022-09-02T08:10:51.895Z,56.54
2022-09-02T08:13:20.791Z,56.74
2022-09-02T08:15:50.873Z,57.23
2022-09-02T08:18:22.398Z,57.06
2022-09-02T08:20:50.977Z,55.06
2022-09-02T08:23:35.419Z,54.14
2022-09-02T08:26:06.737Z,53.80
2022-09-02T08:28:35.397Z,55.47
2022-09-02T08:31:09.658Z,54.90
2022-09-02T08:33:38.113Z,54.20
2022-09-02T08:36:09.438Z,54.00
2022-09-02T08:38:38.284Z,53.10
2022-09-02T08:44:37.364Z,53.87
2022-09-02T08:47:13.404Z,53.50
2022-09-02T08:49:51.893Z,53.53
2022-09-02T08:52:53.447Z,53.19
2022-09-02T08:55:35.437Z,51.71
2022-09-02T08:58:03.740Z,50.67
2022-09-02T09:00:40.470Z,49.77
2022-09-02T09:03:24.448Z,48.65
2022-09-02T09:06:13.135Z,48.51
2022-09-02T09:09:08.969Z,49.32
2022-09-02T09:11:57.623Z,48.62
2022-09-02T09:15:05.714Z,46.86
2022-09-02T09:17:53.200Z,47.29
2022-09-02T09:20:27.477Z,47.16
2022-09-02T09:23:21.969Z,46.82
2022-09-02T09:25:56.182Z,49.08
2022-09-02T09:28:24.425Z,49.23
2022-09-02T09:30:53.059Z,49.66
2022-09-02T09:33:22.981Z,49.01
2022-09-02T09:35:55.309Z,48.62
2022-09-02T09:38:36.918Z,46.80
2022-09-02T09:41:23.296Z,47.24
2022-09-02T09:43:51.615Z,47.75
2022-09-02T09:46:32.495Z,47.40
2022-09-02T09:49:00.881Z,47.70
2022-09-02T09:51:29.019Z,48.04
2022-09-02T09:54:16.775Z,47.49
2022-09-02T09:56:45.225Z,47.12
2022-09-02T09:59:47.430Z,46.95
2022-09-02T10:02:28.316Z,47.01
2022-09-02T10:05:27.958Z,47.01
2022-09-02T10:08:19.648Z,46.89
2022-09-02T10:11:19.782Z,46.93
2022-09-02T10:13:47.978Z,48.33
2022-09-02T10:16:22.535Z,46.88
2022-09-02T10:19:03.046Z,46.94
2022-09-02T10:22:08.515Z,48.32
2022-09-02T10:24:48.697Z,48.25
2022-09-02T10:27:24.726Z,47.57
2022-09-02T10:30:03.695Z,46.71
2022-09-02T10:33:09.888Z,46.13
2022-09-02T10:35:54.740Z,48.76
2022-09-02T10:38:37.437Z,50.00
2022-09-02T10:41:36.100Z,49.67
2022-09-02T10:44:27.500Z,49.20
2022-09-02T10:47:01.921Z,47.82
2022-09-02T10:50:16.056Z,48.38
2022-09-02T10:53:05.876Z,46.29
2022-09-02T10:56:22.172Z,46.70
2022-09-02T10:59:16.561Z,47.41
2022-09-02T11:02:14.139Z,47.32
2022-09-02T11:05:08.048Z,46.35
2022-09-02T11:07:53.280Z,45.82
2022-09-02T11:10:31.963Z,46.63
2022-09-02T11:13:52.058Z,47.01
2022-09-02T11:16:46.202Z,46.48
2022-09-02T11:19:34.319Z,46.84
2022-09-02T11:22:39.184Z,46.31
2022-09-02T11:26:10.680Z,45.37
2022-09-02T11:29:10.752Z,45.16
2022-09-02T11:32:02.677Z,45.09
2022-09-02T11:34:37.001Z,44.99
2022-09-02T11:37:09.231Z,44.67
2022-09-02T11:39:59.222Z,44.44
2022-09-02T11:43:11.281Z,45.17
2022-09-02T11:46:34.246Z,45.43
2022-09-02T11:49:20.987Z,44.76
2022-09-02T11:52:33.752Z,43.71
2022-09-02T11:55:11.353Z,44.70
2022-09-02T11:57:41.550Z,43.23
2022-09-02T12:00:31.001Z,43.25
2022-09-02T12:03:37.942Z,43.75
2022-09-02T12:06:17.603Z,45.23
2022-09-02T12:08:45.788Z,44.91
2022-09-02T12:11:39.297Z,43.73
2022-09-02T12:14:13.926Z,45.13
2022-09-02T12:17:00.960Z,45.61
2022-09-02T12:19:40.292Z,44.67
2022-09-02T12:22:18.935Z,45.28
2022-09-02T12:25:03.672Z,44.55
2022-09-02T12:27:37.175Z,43.97
2022-09-02T12:30:11.795Z,44.37
2022-09-02T12:32:51.807Z,45.44
2022-09-02T12:38:15.631Z,45.69
2022-09-02T12:41:05.958Z,44.61
2022-09-02T12:44:15.786Z,43.83
2022-09-02T12:46:48.467Z,44.02
2022-09-02T12:49:48.706Z,43.83
2022-09-02T12:52:35.053Z,43.18
2022-09-02T12:55:11.278Z,44.35
2022-09-02T12:57:42.821Z,44.05
2022-09-02T13:00:26.581Z,44.47
2022-09-02T13:03:29.178Z,44.17
2022-09-02T13:06:18.265Z,44.09
2022-09-02T13:12:34.617Z,45.38
2022-09-02T13:15:26.604Z,43.84
2022-09-02T13:18:43.901Z,43.22
2022-09-02T13:21:58.528Z,44.08
2022-09-02T13:25:04.407Z,43.73
2022-09-02T13:27:57.772Z,44.24
2022-09-02T13:30:51.733Z,44.32
2022-09-02T13:33:20.284Z,43.69
2022-09-02T13:35:57.200Z,43.81
2022-09-02T13:38:28.747Z,43.93
2022-09-02T13:40:56.852Z,44.59
2022-09-02T13:43:27.298Z,44.35
2022-09-02T13:46:01.737Z,44.01
2022-09-02T13:48:33.178Z,43.69
2022-09-02T13:51:13.998Z,43.94
2022-09-02T13:56:36.719Z,44.73
2022-09-02T13:59:05.007Z,43.92
2022-09-02T14:01:38.234Z,42.91
2022-09-02T14:04:16.571Z,43.06
2022-09-02T14:06:47.795Z,43.67
2022-09-02T14:09:30.534Z,43.75
2022-09-02T14:12:00.731Z,44.18
2022-09-02T14:14:29.906Z,43.94
2022-09-02T14:17:23.947Z,44.19
2022-09-02T14:20:10.281Z,45.46
2022-09-02T14:22:40.042Z,44.60
2022-09-02T14:25:16.857Z,43.75
2022-09-02T14:27:59.334Z,43.81
2022-09-02T14:30:37.634Z,43.67
2022-09-02T14:33:26.725Z,43.55
2022-09-02T14:36:08.817Z,44.53
2022-09-02T14:38:46.154Z,44.24
2022-09-02T14:41:34.287Z,43.22
2022-09-02T14:44:25.563Z,43.95
2022-09-02T14:46:58.969Z,44.14
2022-09-02T14:49:30.523Z,44.27
2022-09-02T14:52:01.990Z,43.75
2022-09-02T14:54:37.889Z,43.92
2022-09-02T14:57:32.656Z,44.21
2022-09-02T15:00:14.254Z,44.42
2022-09-02T15:02:47.873Z,44.43
2022-09-02T15:05:16.909Z,44.53
2022-09-02T15:07:46.742Z,44.66
2022-09-02T15:10:14.832Z,44.83
2022-09-02T15:13:01.416Z,45.09
2022-09-02T15:15:29.425Z,45.86
2022-09-02T15:17:57.900Z,45.54
2022-09-02T15:20:29.046Z,45.78
2022-09-02T15:22:57.377Z,46.39
2022-09-02T15:25:25.947Z,46.41
2022-09-02T15:27:54.296Z,46.77
2022-09-02T15:30:22.363Z,46.45
2022-09-02T15:32:51.656Z,47.21
2022-09-02T15:35:19.905Z,46.89
2022-09-02T15:37:51.020Z,47.19
2022-09-02T15:40:19.578Z,47.43
2022-09-02T15:42:49.086Z,47.91
2022-09-02T15:45:17.334Z,47.95
2022-09-02T15:47:45.455Z,48.23
2022-09-02T15:50:14.313Z,49.46
2022-09-02T15:52:46.441Z,49.51
2022-09-02T15:55:14.917Z,50.04
2022-09-02T15:57:42.881Z,49.56
2022-09-02T16:00:11.541Z,49.87
2022-09-02T16:02:44.618Z,50.51
2022-09-02T16:05:13.566Z,51.13
2022-09-02T16:07:42.087Z,51.05
2022-09-02T16:10:10.916Z,51.75
2022-09-02T16:12:39.229Z,51.97
2022-09-02T16:15:08.241Z,51.82
2022-09-02T16:17:36.625Z,52.36
2022-09-02T16:20:05.742Z,52.70
2022-09-02T16:22:34.037Z,52.88
2022-09-02T16:25:03.212Z,53.45
2022-09-02T16:27:49.846Z,53.69
2022-09-02T16:30:18.651Z,54.42
2022-09-02T16:32:47.838Z,54.91
2022-09-02T16:35:16.266Z,55.33
2022-09-02T16:37:45.098Z,55.41
2022-09-02T16:40:21.515Z,55.96
2022-09-02T16:42:50.266Z,56.19
2022-09-02T16:45:18.432Z,56.25
2022-09-02T16:47:47.196Z,56.58
2022-09-02T16:50:15.859Z,56.45
2022-09-02T16:52:44.607Z,56.01
2022-09-02T16:55:18.158Z,55.72
2022-09-02T16:57:46.345Z,56.09
2022-09-02T17:00:15.784Z,56.80
2022-09-02T17:02:44.525Z,58.28
2022-09-02T17:05:14.647Z,58.49
2022-09-02T17:07:45.550Z,59.17
2022-09-02T17:10:13.834Z,60.35
2022-09-02T17:12:43.218Z,61.43
2022-09-02T17:15:11.734Z,61.15
2022-09-02T17:17:40.485Z,61.67
2022-09-02T17:20:09.397Z,61.78
2022-09-02T17:22:37.632Z,62.45
2022-09-02T17:25:08.824Z,62.60
2022-09-02T17:27:37.811Z,63.14
2022-09-02T17:30:07.761Z,64.28
2022-09-02T17:32:36.084Z,64.51
2022-09-02T17:35:05.565Z,65.34
2022-09-02T17:37:37.758Z,65.40
2022-09-02T17:40:29.300Z,67.12
2022-09-02T17:42:58.881Z,67.96
2022-09-02T17:45:27.071Z,68.89
2022-09-02T17:47:55.112Z,70.46
2022-09-02T17:50:23.182Z,69.73
2022-09-02T17:52:53.734Z,70.19
2022-09-02T17:55:22.712Z,70.95
2022-09-02T17:58:15.008Z,70.41
2022-09-02T18:00:46.825Z,71.04
2022-09-02T18:03:40.301Z,71.50
2022-09-02T18:06:22.117Z,71.81
2022-09-02T18:09:01.617Z,72.71
2022-09-02T18:11:31.022Z,73.14
2022-09-02T18:14:10.605Z,74.18
2022-09-02T18:16:52.075Z,74.05
2022-09-02T18:19:32.760Z,75.35
2022-09-02T18:22:33.558Z,75.48
2022-09-02T18:25:08.651Z,77.57
2022-09-02T18:28:09.390Z,77.80
2022-09-02T18:31:05.173Z,78.78
2022-09-02T18:33:46.417Z,79.21
2022-09-02T18:36:52.074Z,80.26
2022-09-02T18:39:42.109Z,82.26
2022-09-02T18:42:10.483Z,82.68
2022-09-02T18:44:44.265Z,83.64
2022-09-02T18:47:28.776Z,84.13
2022-09-02T18:50:01.599Z,84.87
2022-09-02T18:52:32.172Z,85.46
2022-09-02T18:55:00.330Z,85.94
2022-09-02T18:57:44.618Z,87.95
2022-09-02T19:00:14.106Z,89.47
2022-09-02T19:03:05.841Z,90.20
2022-09-02T19:05:36.454Z,91.07
2022-09-02T19:08:35.744Z,90.36
2022-09-02T19:11:14.417Z,91.59
2022-09-02T19:13:53.143Z,93.60
2022-09-02T19:16:33.350Z,93.63
2022-09-02T19:19:03.613Z,93.72
2022-09-02T19:21:53.098Z,94.85
2022-09-02T19:24:58.297Z,96.66
2022-09-02T19:27:34.097Z,98.67
2022-09-02T19:30:19.044Z,99.62
2022-09-02T19:32:54.031Z,100.00
2022-09-02T19:35:26.617Z,100.00
2022-09-02T19:37:57.816Z,100.00
2022-09-02T19:40:33.197Z,100.00
2022-09-02T19:43:05.488Z,100.00
2022-09-02T19:45:39.452Z,100.00
2022-09-02T19:48:11.466Z,100.00
2022-09-02T19:50:46.129Z,100.00
2022-09-02T19:53:30.370Z,100.00
2022-09-02T19:56:21.820Z,100.00
2022-09-02T19:58:51.448Z,100.00
2022-09-02T20:01:19.782Z,100.00
2022-09-02T20:03:48.238Z,100.00
2022-09-02T20:06:16.633Z,100.00
2022-09-02T20:08:45.018Z,100.00
2022-09-02T20:11:13.724Z,100.00
2022-09-02T20:13:42.041Z,100.00
2022-09-02T20:16:22.418Z,100.00
2022-09-02T20:18:54.276Z,100.00
2022-09-02T20:25:38.148Z,100.00
2022-09-02T20:29:09.185Z,100.00
2022-09-02T20:32:17.473Z,100.00
2022-09-02T20:34:45.857Z,100.00
2022-09-02T20:37:28.972Z,100.00
2022-09-02T20:40:22.082Z,100.00
2022-09-02T20:43:16.055Z,100.00
2022-09-02T20:46:20.887Z,100.00
2022-09-02T20:49:18.321Z,100.00
2022-09-02T20:52:22.712Z,100.00
2022-09-02T20:55:18.371Z,100.00
2022-09-02T20:58:23.542Z,100.00
2022-09-02T21:01:08.265Z,100.00
2022-09-02T21:04:05.926Z,100.00
2022-09-02T21:06:44.650Z,100.00
2022-09-02T21:09:33.460Z,100.00
2022-09-02T21:12:25.669Z,100.00
2022-09-02T21:15:04.083Z,100.00
2022-09-02T21:18:18.519Z,100.00
2022-09-02T21:21:25.940Z,100.00
2022-09-02T21:23:58.568Z,100.00
2022-09-02T21:27:21.877Z,100.00
2022-09-02T21:30:08.262Z,100.00
2022-09-02T21:34:06.546Z,100.00
2022-09-02T21:36:45.873Z,100.00
2022-09-02T21:39:22.205Z,100.00
2022-09-02T21:42:38.160Z,100.00
2022-09-02T21:46:00.104Z,100.00
2022-09-02T21:48:58.455Z,100.00
2022-09-02T21:51:42.158Z,100.00
2022-09-02T21:54:26.705Z,100.00
2022-09-02T21:57:24.889Z,100.00
2022-09-02T21:59:56.288Z,100.00
2022-09-02T22:02:58.212Z,100.00
2022-09-02T22:05:48.916Z,100.00
2022-09-02T22:08:50.624Z,100.00
2022-09-02T22:11:42.171Z,100.00
2022-09-02T22:14:16.274Z,100.00
2022-09-02T22:17:01.750Z,100.00
2022-09-02T22:19:39.338Z,100.00
2022-09-02T22:22:24.696Z,100.00
2022-09-02T22:24:55.289Z,100.00
2022-09-02T22:27:39.939Z,100.00
2022-09-02T22:30:17.345Z,100.00
2022-09-02T22:33:07.170Z,100.00
2022-09-02T22:36:01.250Z,100.00
2022-09-02T22:39:02.326Z,100.00
2022-09-02T22:42:03.159Z,100.00
2022-09-02T22:45:25.366Z,100.00
2022-09-02T22:48:43.867Z,100.00
2022-09-02T22:52:06.465Z,100.00
2022-09-02T22:54:34.662Z,100.00
2022-09-02T22:57:38.435Z,100.00
2022-09-02T23:00:10.660Z,100.00
2022-09-02T23:03:11.946Z,100.00
2022-09-02T23:05:47.973Z,100.00
2022-09-02T23:08:21.147Z,100.00
2022-09-02T23:11:12.799Z,100.00
2022-09-02T23:13:58.972Z,100.00
2022-09-02T23:17:03.841Z,100.00
2022-09-02T23:20:02.204Z,100.00
2022-09-02T23:22:51.800Z,100.00
2022-09-02T23:25:34.542Z,100.00
2022-09-02T23:28:15.370Z,100.00
2022-09-02T23:31:20.359Z,100.00
2022-09-02T23:34:14.009Z,100.00
2022-09-02T23:37:27.124Z,100.00
2022-09-02T23:40:11.679Z,100.00
2022-09-02T23:42:40.447Z,100.00
2022-09-02T23:45:31.366Z,100.00
2022-09-02T23:48:05.438Z,100.00
2022-09-02T23:50:47.332Z,100.00
2022-09-02T23:53:54.549Z,100.00
2022-09-02T23:56:53.968Z,100.00
2022-09-02T23:59:36.685Z,100.00
